createdAt,value
2023-05-24T00:02:13.945Z,98478.97
2023-05-24T00:04:41.675Z,98457.63
2023-05-24T00:07:08.510Z,98497.56
2023-05-24T00:09:35.082Z,98499.22
2023-05-24T00:12:01.692Z,98505.56
2023-05-24T00:14:28.175Z,98502.63
2023-05-24T00:16:54.955Z,98447.31
2023-05-24T00:19:23.034Z,98446.47
2023-05-24T00:21:49.848Z,98481.13
2023-05-24T00:24:19.492Z,98463.38
2023-05-24T00:26:46.113Z,98450.47
2023-05-24T00:29:13.138Z,98450.59
2023-05-24T00:31:39.914Z,98418.66
2023-05-24T00:34:06.897Z,98448.69
2023-05-24T00:36:34.204Z,98391.41
2023-05-24T00:39:00.923Z,98413.16
2023-05-24T00:41:27.520Z,98427.63
2023-05-24T00:43:54.111Z,98424.03
2023-05-24T00:46:32.441Z,98387.03
2023-05-24T00:49:01.597Z,98414.91
2023-05-24T00:51:28.716Z,98380.69
2023-05-24T00:53:56.537Z,98418.53
2023-05-24T00:56:23.476Z,98400.91
2023-05-24T00:58:54.676Z,98409.50
2023-05-24T01:01:27.979Z,98443.78
2023-05-24T01:03:54.874Z,98435.97
2023-05-24T01:06:22.022Z,98438.59
2023-05-24T01:09:08.137Z,98402.16
2023-05-24T01:11:53.333Z,98433.50
2023-05-24T01:14:34.011Z,98420.19
2023-05-24T01:17:24.453Z,98442.94
2023-05-24T01:20:13.333Z,98449.72
2023-05-24T01:23:18.880Z,98435.44
2023-05-24T01:25:53.890Z,98382.06
2023-05-24T01:28:22.380Z,98419.06
2023-05-24T01:30:48.943Z,98436.84
2023-05-24T01:33:15.450Z,98438.22
2023-05-24T01:35:42.722Z,98432.13
2023-05-24T01:38:13.127Z,98437.09
2023-05-24T01:40:41.084Z,98433.78
2023-05-24T01:43:40.180Z,98443.22
2023-05-24T01:46:34.696Z,98456.09
2023-05-24T01:49:23.347Z,98451.59
2023-05-24T01:52:15.853Z,98446.31
2023-05-24T01:54:50.375Z,98425.19
2023-05-24T01:57:20.246Z,98459.59
2023-05-24T01:59:47.943Z,98448.50
2023-05-24T02:02:14.749Z,98455.56
2023-05-24T02:04:41.617Z,98455.13
2023-05-24T02:07:08.650Z,98464.69
2023-05-24T02:09:35.151Z,98419.47
2023-05-24T02:12:02.382Z,98468.28
2023-05-24T02:14:28.939Z,98448.16
2023-05-24T02:16:59.282Z,98429.16
2023-05-24T02:19:26.418Z,98430.69
2023-05-24T02:21:53.489Z,98443.84
2023-05-24T02:24:20.164Z,98471.91
2023-05-24T02:26:46.726Z,98467.59
2023-05-24T02:29:13.635Z,98448.69
2023-05-24T02:31:40.192Z,98472.88
2023-05-24T02:34:07.780Z,98424.56
2023-05-24T02:36:36.544Z,98465.94
2023-05-24T02:39:04.134Z,98440.13
2023-05-24T02:41:30.675Z,98475.19
2023-05-24T02:43:57.359Z,98478.13
2023-05-24T02:46:23.914Z,98433.06
2023-05-24T02:48:50.764Z,98462.91
2023-05-24T02:51:17.568Z,98436.72
2023-05-24T02:53:45.325Z,98448.59
2023-05-24T02:56:13.680Z,98484.19
2023-05-24T02:58:41.490Z,98480.88
2023-05-24T03:01:08.651Z,98489.38
2023-05-24T03:03:35.300Z,98515.22
2023-05-24T03:06:01.788Z,98494.13
2023-05-24T03:08:28.263Z,98511.72
2023-05-24T03:10:54.702Z,98519.44
2023-05-24T03:13:24.279Z,98378.19
2023-05-24T03:15:52.040Z,98519.81
2023-05-24T03:18:18.522Z,98475.53
2023-05-24T03:20:45.238Z,98383.66
2023-05-24T03:23:11.907Z,98510.25
2023-05-24T03:25:38.531Z,98509.56
2023-05-24T03:28:05.463Z,98418.28
2023-05-24T03:30:31.875Z,98503.00
2023-05-24T03:32:58.439Z,98490.41
2023-05-24T03:35:25.111Z,98469.97
2023-05-24T03:37:51.649Z,98454.59
2023-05-24T03:40:18.098Z,98475.78
2023-05-24T03:42:44.552Z,98422.44
2023-05-24T03:45:11.205Z,98451.41
2023-05-24T03:47:37.698Z,98461.66
2023-05-24T03:50:04.468Z,98501.16
2023-05-24T03:52:32.434Z,98424.50
2023-05-24T03:54:59.034Z,98520.25
2023-05-24T03:57:25.692Z,98479.72
2023-05-24T03:59:52.511Z,98510.00
2023-05-24T04:02:19.025Z,98517.47
2023-05-24T04:04:45.801Z,98522.72
2023-05-24T04:07:13.926Z,98517.72
2023-05-24T04:09:40.415Z,98519.34
2023-05-24T04:12:07.027Z,98516.00
2023-05-24T04:14:33.637Z,98501.66
2023-05-24T04:17:00.151Z,98490.56
2023-05-24T04:19:26.743Z,98444.84
2023-05-24T04:21:53.223Z,98463.19
2023-05-24T04:24:19.705Z,98388.03
2023-05-24T04:26:47.782Z,98381.78
2023-05-24T04:29:14.319Z,98317.59
2023-05-24T04:31:42.501Z,98324.50
2023-05-24T04:34:09.837Z,98321.84
2023-05-24T04:36:36.429Z,98317.56
2023-05-24T04:39:05.018Z,98303.16
2023-05-24T04:41:37.530Z,98260.56
2023-05-24T04:44:04.328Z,98274.28
2023-05-24T04:46:31.413Z,98256.22
2023-05-24T04:48:57.953Z,98172.44
2023-05-24T04:51:24.469Z,98169.06
2023-05-24T04:53:50.934Z,98107.94
2023-05-24T04:56:17.715Z,98044.56
2023-05-24T04:58:47.660Z,97984.06
2023-05-24T05:01:14.186Z,97913.44
2023-05-24T05:03:41.058Z,97927.16
2023-05-24T05:06:07.956Z,97904.84
2023-05-24T05:08:34.420Z,97911.84
2023-05-24T05:11:01.237Z,97923.13
2023-05-24T05:13:27.758Z,97899.69
2023-05-24T05:15:54.218Z,97949.91
2023-05-24T05:18:20.677Z,97970.78
2023-05-24T05:20:47.735Z,98026.81
2023-05-24T05:23:14.342Z,98039.50
2023-05-24T05:25:41.095Z,98044.38
2023-05-24T05:28:07.531Z,98030.06
2023-05-24T05:30:34.023Z,98077.97
2023-05-24T05:33:00.991Z,98074.06
2023-05-24T05:35:27.541Z,98129.53
2023-05-24T05:37:54.550Z,98078.78
2023-05-24T05:40:21.015Z,98119.38
2023-05-24T05:42:47.685Z,98130.66
2023-05-24T05:45:14.660Z,98169.31
2023-05-24T05:47:41.301Z,98170.03
2023-05-24T05:50:07.989Z,98167.63
2023-05-24T05:52:34.787Z,98194.78
2023-05-24T05:55:01.278Z,98185.63
2023-05-24T05:57:27.700Z,98255.16
2023-05-24T05:59:54.338Z,98303.66
2023-05-24T06:02:22.713Z,98354.94
2023-05-24T06:04:49.842Z,98295.53
2023-05-24T06:07:16.584Z,98284.97
2023-05-24T06:09:43.102Z,98290.81
2023-05-24T06:12:09.624Z,98289.53
2023-05-24T06:14:38.481Z,98378.13
2023-05-24T06:17:07.984Z,98410.41
2023-05-24T06:19:34.449Z,98433.13
2023-05-24T06:22:01.651Z,98507.84
2023-05-24T06:24:28.689Z,98406.63
2023-05-24T06:26:55.876Z,98405.97
2023-05-24T06:29:22.953Z,98408.13
2023-05-24T06:31:50.379Z,98448.50
2023-05-24T06:34:20.985Z,98436.75
2023-05-24T06:36:48.582Z,98473.19
2023-05-24T06:39:16.200Z,98488.13
2023-05-24T06:41:44.413Z,98521.88
2023-05-24T06:44:11.123Z,98515.38
2023-05-24T06:46:37.928Z,98579.03
2023-05-24T06:49:04.672Z,98583.41
2023-05-24T06:51:33.447Z,98608.75
2023-05-24T06:54:00.106Z,98610.38
2023-05-24T06:56:27.041Z,98559.22
2023-05-24T06:58:53.492Z,98621.94
2023-05-24T07:01:19.972Z,98662.91
2023-05-24T07:03:47.078Z,98665.09
2023-05-24T07:06:14.396Z,98644.72
2023-05-24T07:08:44.313Z,98654.63
2023-05-24T07:11:15.021Z,98705.16
2023-05-24T07:13:41.489Z,98679.75
2023-05-24T07:16:08.178Z,98732.03
2023-05-24T07:18:34.646Z,98723.84
2023-05-24T07:21:01.345Z,98689.53
2023-05-24T07:23:28.150Z,98722.66
2023-05-24T07:25:54.650Z,98760.41
2023-05-24T07:28:21.111Z,98805.59
2023-05-24T07:30:47.902Z,98768.44
2023-05-24T07:33:14.913Z,98745.59
2023-05-24T07:35:42.005Z,98763.69
2023-05-24T07:38:08.543Z,98821.97
2023-05-24T07:40:35.454Z,98842.19
2023-05-24T07:43:03.914Z,98817.41
2023-05-24T07:45:31.522Z,98847.41
2023-05-24T07:47:58.072Z,98921.75
2023-05-24T07:50:25.001Z,98963.94
2023-05-24T07:52:51.617Z,99002.97
2023-05-24T07:55:18.397Z,99000.22
2023-05-24T07:57:44.848Z,99018.47
2023-05-24T08:00:14.780Z,98986.66
2023-05-24T08:02:42.705Z,98959.66
2023-05-24T08:05:11.681Z,98956.22
2023-05-24T08:07:38.419Z,98988.84
2023-05-24T08:10:05.387Z,99014.03
2023-05-24T08:12:32.290Z,99089.59
2023-05-24T08:14:59.096Z,99035.84
2023-05-24T08:17:28.110Z,99075.22
2023-05-24T08:19:54.642Z,99096.97
2023-05-24T08:22:22.094Z,99100.84
2023-05-24T08:24:48.575Z,99129.63
2023-05-24T08:27:15.381Z,99107.34
2023-05-24T08:29:41.953Z,99106.63
2023-05-24T08:32:09.905Z,99100.84
2023-05-24T08:34:37.608Z,99086.34
2023-05-24T08:37:05.208Z,99073.78
2023-05-24T08:39:31.829Z,99116.78
2023-05-24T08:44:32.403Z,99206.28
2023-05-24T08:46:59.980Z,99145.22
2023-05-24T08:49:26.687Z,99164.78
2023-05-24T08:51:53.454Z,99210.66
2023-05-24T08:54:21.204Z,99193.78
2023-05-24T08:56:48.389Z,99227.78
2023-05-24T08:59:15.757Z,99233.41
2023-05-24T09:01:43.191Z,99281.06
2023-05-24T09:04:10.172Z,99233.31
2023-05-24T09:06:37.141Z,99276.63
2023-05-24T09:09:04.180Z,99480.97
2023-05-24T09:11:32.255Z,99550.25
2023-05-24T09:14:00.195Z,99591.69
2023-05-24T09:16:27.359Z,99604.09
2023-05-24T09:18:54.123Z,99625.97
2023-05-24T09:21:21.020Z,99629.09
2023-05-24T09:23:48.612Z,99613.53
2023-05-24T09:26:15.692Z,99637.97
2023-05-24T09:28:42.414Z,99598.41
2023-05-24T09:31:08.970Z,99619.81
2023-05-24T09:33:35.911Z,99639.53
2023-05-24T09:36:07.547Z,99544.09
2023-05-24T09:38:36.486Z,99626.63
2023-05-24T09:41:06.567Z,99635.75
2023-05-24T09:43:36.313Z,99637.94
2023-05-24T09:46:04.788Z,99605.19
2023-05-24T09:48:32.057Z,99632.53
2023-05-24T09:51:07.660Z,99600.19
2023-05-24T09:53:35.190Z,99623.63
2023-05-24T09:56:05.336Z,99615.59
2023-05-24T09:58:35.341Z,99618.66
2023-05-24T10:01:11.009Z,99603.59
2023-05-24T10:03:38.250Z,99611.09
2023-05-24T10:06:08.065Z,99611.75
2023-05-24T10:08:36.157Z,99628.81
2023-05-24T10:11:06.268Z,99636.34
2023-05-24T10:13:35.696Z,99633.00
2023-05-24T10:16:05.939Z,99642.19
2023-05-24T10:18:32.694Z,99597.97
2023-05-24T10:21:01.926Z,99628.97
2023-05-24T10:23:33.098Z,99633.66
2023-05-24T10:26:06.758Z,99641.22
2023-05-24T10:28:42.637Z,99563.56
2023-05-24T10:31:12.715Z,99640.91
2023-05-24T10:33:42.470Z,99653.31
2023-05-24T10:36:13.760Z,99651.19
2023-05-24T10:38:40.763Z,99608.34
2023-05-24T10:41:08.231Z,99648.75
2023-05-24T10:43:36.181Z,99647.00
2023-05-24T10:48:36.419Z,99617.75
2023-05-24T10:51:35.733Z,99644.66
2023-05-24T10:54:16.854Z,99641.81
2023-05-24T10:56:48.813Z,99644.00
2023-05-24T10:59:45.481Z,99646.00
2023-05-24T11:02:16.478Z,99638.88
2023-05-24T11:04:46.620Z,99641.34
2023-05-24T11:07:17.140Z,99621.00
2023-05-24T11:09:46.793Z,99645.34
2023-05-24T11:12:18.434Z,99600.28
2023-05-24T11:14:54.304Z,99609.81
2023-05-24T11:17:22.380Z,99613.22
2023-05-24T11:19:54.632Z,99641.63
2023-05-24T11:22:23.075Z,99657.19
2023-05-24T11:24:50.078Z,99662.91
2023-05-24T11:27:16.617Z,99657.25
2023-05-24T11:29:45.102Z,99656.34
2023-05-24T11:32:19.639Z,99654.22
2023-05-24T11:34:47.504Z,99645.31
2023-05-24T11:37:17.699Z,99604.53
2023-05-24T11:39:50.259Z,99638.91
2023-05-24T11:42:16.905Z,99643.56
2023-05-24T11:44:43.500Z,99593.19
2023-05-24T11:47:10.085Z,99651.19
2023-05-24T11:49:36.767Z,99640.09
2023-05-24T11:52:03.678Z,99620.13
2023-05-24T11:54:35.106Z,99636.69
2023-05-24T11:57:02.266Z,99624.25
2023-05-24T11:59:29.654Z,99624.41
2023-05-24T12:02:05.515Z,99641.69
2023-05-24T12:04:33.386Z,99614.16
2023-05-24T12:07:00.927Z,99634.00
2023-05-24T12:09:28.740Z,99629.91
2023-05-24T12:11:55.777Z,99622.75
2023-05-24T12:14:28.758Z,99617.78
2023-05-24T12:16:57.235Z,99633.53
2023-05-24T12:19:33.545Z,99631.50
2023-05-24T12:22:01.612Z,99618.13
2023-05-24T12:24:28.742Z,99627.78
2023-05-24T12:27:02.102Z,99620.88
2023-05-24T12:29:32.650Z,99616.19
2023-05-24T12:31:59.888Z,99601.00
2023-05-24T12:34:26.619Z,99576.56
2023-05-24T12:36:55.602Z,99615.00
2023-05-24T12:39:23.557Z,99628.50
2023-05-24T12:41:54.405Z,99598.06
2023-05-24T12:44:25.831Z,99619.16
2023-05-24T12:46:56.862Z,99615.63
2023-05-24T12:49:24.502Z,99619.75
2023-05-24T12:51:51.793Z,99617.81
2023-05-24T12:54:19.553Z,99604.44
2023-05-24T12:56:46.348Z,99587.22
2023-05-24T12:59:12.916Z,99551.63
2023-05-24T13:01:39.816Z,99620.47
2023-05-24T13:04:06.800Z,99582.50
2023-05-24T13:06:33.255Z,99620.47
2023-05-24T13:09:00.141Z,99629.63
2023-05-24T13:11:27.706Z,99614.78
2023-05-24T13:13:54.435Z,99606.72
2023-05-24T13:16:21.772Z,99610.13
2023-05-24T13:18:48.585Z,99600.78
2023-05-24T13:21:15.270Z,99610.09
2023-05-24T13:23:43.689Z,99558.97
2023-05-24T13:26:10.288Z,99562.47
2023-05-24T13:28:38.229Z,99610.41
2023-05-24T13:31:06.414Z,99555.97
2023-05-24T13:33:35.891Z,99563.28
2023-05-24T13:36:02.852Z,99566.44
2023-05-24T13:38:29.402Z,99565.00
2023-05-24T13:40:56.381Z,99573.19
2023-05-24T13:43:23.028Z,99593.03
2023-05-24T13:45:49.757Z,99576.97
2023-05-24T13:48:16.922Z,99596.22
2023-05-24T13:50:44.741Z,99565.28
2023-05-24T13:53:11.694Z,99584.88
2023-05-24T13:55:38.675Z,99589.69
2023-05-24T13:58:06.013Z,99594.72
2023-05-24T14:00:33.844Z,99569.66
2023-05-24T14:03:00.409Z,99570.84
2023-05-24T14:05:29.199Z,99553.56
2023-05-24T14:08:04.127Z,99586.88
2023-05-24T14:10:31.125Z,99588.72
2023-05-24T14:13:16.288Z,99583.72
2023-05-24T14:15:47.034Z,99550.81
2023-05-24T14:18:14.257Z,99451.94
2023-05-24T14:20:41.207Z,99586.94
2023-05-24T14:23:08.434Z,99581.72
2023-05-24T14:25:35.480Z,99561.09
2023-05-24T14:28:03.873Z,99588.69
2023-05-24T14:30:34.094Z,99598.13
2023-05-24T14:33:03.858Z,99586.00
2023-05-24T14:35:38.079Z,99594.03
2023-05-24T14:38:05.784Z,99594.72
2023-05-24T14:40:34.205Z,99578.66
2023-05-24T14:43:02.681Z,99492.81
2023-05-24T14:45:29.153Z,99578.00
2023-05-24T14:47:55.760Z,99592.88
2023-05-24T14:50:22.281Z,99558.63
2023-05-24T14:52:48.886Z,99593.41
2023-05-24T14:55:16.151Z,99591.41
2023-05-24T14:57:42.804Z,99596.06
2023-05-24T15:00:10.653Z,99589.06
2023-05-24T15:02:37.807Z,99579.53
2023-05-24T15:05:04.862Z,99568.44
2023-05-24T15:07:32.185Z,99582.19
2023-05-24T15:09:58.903Z,99582.38
2023-05-24T15:12:25.449Z,99591.41
2023-05-24T15:14:51.899Z,99593.09
2023-05-24T15:17:21.576Z,99575.00
2023-05-24T15:19:48.644Z,99555.97
2023-05-24T15:22:15.262Z,99586.88
2023-05-24T15:24:41.908Z,99592.69
2023-05-24T15:27:09.331Z,99590.06
2023-05-24T15:29:35.838Z,99599.88
2023-05-24T15:32:02.399Z,99395.22
2023-05-24T15:34:28.975Z,99595.72
2023-05-24T15:36:55.481Z,99570.31
2023-05-24T15:39:22.013Z,99606.50
2023-05-24T15:41:48.626Z,99596.63
2023-05-24T15:44:15.129Z,99593.53
2023-05-24T15:46:41.705Z,99593.78
2023-05-24T15:49:08.180Z,99599.25
2023-05-24T15:54:06.364Z,99598.50
2023-05-24T15:56:32.878Z,99561.47
2023-05-24T15:58:59.735Z,99598.50
2023-05-24T16:01:26.569Z,99533.94
2023-05-24T16:03:53.991Z,99592.28
2023-05-24T16:06:20.690Z,99578.19
2023-05-24T16:08:47.872Z,99594.59
2023-05-24T16:11:14.485Z,99567.53
2023-05-24T16:13:40.979Z,99588.56
2023-05-24T16:16:07.565Z,99583.63
2023-05-24T16:18:35.597Z,99590.34
2023-05-24T16:21:02.083Z,99565.16
2023-05-24T16:23:28.652Z,99594.53
2023-05-24T16:25:55.490Z,99563.22
2023-05-24T16:28:24.217Z,99581.03
2023-05-24T16:30:56.134Z,99581.38
2023-05-24T16:33:24.400Z,99553.31
2023-05-24T16:35:55.855Z,99584.72
2023-05-24T16:38:26.074Z,99589.75
2023-05-24T16:40:53.822Z,99572.13
2023-05-24T16:43:20.485Z,99573.69
2023-05-24T16:45:47.194Z,99581.53
2023-05-24T16:48:14.719Z,99584.03
2023-05-24T16:50:42.322Z,99574.34
2023-05-24T16:53:09.288Z,99573.00
2023-05-24T16:55:36.010Z,99571.66
2023-05-24T16:58:03.134Z,99564.50
2023-05-24T17:00:29.766Z,99534.59
2023-05-24T17:02:59.326Z,99572.44
2023-05-24T17:05:26.013Z,99576.94
2023-05-24T17:07:52.512Z,99538.06
2023-05-24T17:10:19.049Z,99583.50
2023-05-24T17:12:47.409Z,99578.50
2023-05-24T17:15:13.967Z,99575.78
2023-05-24T17:17:40.891Z,99569.75
2023-05-24T17:20:07.863Z,99570.22
2023-05-24T17:22:34.571Z,99552.88
2023-05-24T17:25:01.083Z,99534.97
2023-05-24T17:27:27.558Z,99533.94
2023-05-24T17:29:54.125Z,99533.75
2023-05-24T17:32:21.139Z,99522.41
2023-05-24T17:34:47.696Z,99521.88
2023-05-24T17:37:15.397Z,99542.47
2023-05-24T17:39:42.318Z,99532.72
2023-05-24T17:42:08.927Z,99491.44
2023-05-24T17:44:35.512Z,99534.47
2023-05-24T17:47:02.183Z,99545.00
2023-05-24T17:49:32.844Z,99539.13
2023-05-24T17:52:00.920Z,99493.59
2023-05-24T17:54:27.780Z,99537.72
2023-05-24T17:56:54.314Z,99486.53
2023-05-24T17:59:21.075Z,99527.81
2023-05-24T18:01:48.015Z,99525.00
2023-05-24T18:04:14.800Z,99520.28
2023-05-24T18:06:41.631Z,99521.75
2023-05-24T18:09:08.342Z,99518.31
2023-05-24T18:11:34.992Z,99506.06
2023-05-24T18:14:03.813Z,99489.19
2023-05-24T18:16:31.525Z,99505.31
2023-05-24T18:18:58.556Z,99507.59
2023-05-24T18:21:25.155Z,99464.53
2023-05-24T18:23:51.689Z,99488.19
2023-05-24T18:26:18.193Z,99450.38
2023-05-24T18:28:44.911Z,99451.69
2023-05-24T18:31:21.435Z,99462.31
2023-05-24T18:33:48.127Z,99412.53
2023-05-24T18:36:14.697Z,99423.91
2023-05-24T18:38:41.376Z,99416.41
2023-05-24T18:41:12.287Z,99421.13
2023-05-24T18:43:40.077Z,99411.25
2023-05-24T18:46:06.813Z,99408.81
2023-05-24T18:48:33.396Z,99399.84
2023-05-24T18:51:00.065Z,99382.78
2023-05-24T18:53:26.695Z,99375.13
2023-05-24T18:55:53.324Z,99349.66
2023-05-24T18:58:20.407Z,99328.19
2023-05-24T19:00:47.374Z,99325.22
2023-05-24T19:03:13.991Z,99313.13
2023-05-24T19:05:43.634Z,99306.97
2023-05-24T19:08:10.776Z,99315.19
2023-05-24T19:10:37.685Z,99299.81
2023-05-24T19:13:04.198Z,99270.59
2023-05-24T19:15:30.716Z,99247.13
2023-05-24T19:17:58.064Z,99280.78
2023-05-24T19:20:24.959Z,99207.19
2023-05-24T19:22:51.646Z,99188.81
2023-05-24T19:25:21.351Z,99219.38
2023-05-24T19:27:59.149Z,99226.22
2023-05-24T19:30:27.030Z,99186.44
2023-05-24T19:32:53.602Z,99183.13
2023-05-24T19:35:20.061Z,99176.78
2023-05-24T19:37:46.530Z,99170.84
2023-05-24T19:40:13.013Z,99138.47
2023-05-24T19:42:39.493Z,99141.41
2023-05-24T19:45:06.969Z,99185.78
2023-05-24T19:47:33.601Z,99168.13
2023-05-24T19:50:00.141Z,99155.66
2023-05-24T19:52:27.453Z,99149.75
2023-05-24T19:54:55.019Z,99160.03
2023-05-24T19:57:21.437Z,99154.84
2023-05-24T19:59:48.424Z,99139.31
2023-05-24T20:02:15.037Z,99092.03
2023-05-24T20:04:42.037Z,99065.31
2023-05-24T20:07:08.905Z,98993.91
2023-05-24T20:09:35.691Z,98867.72
2023-05-24T20:12:02.891Z,98778.53
2023-05-24T20:14:31.383Z,98746.81
2023-05-24T20:16:58.933Z,98689.00
2023-05-24T20:19:26.251Z,98690.28
2023-05-24T20:21:53.017Z,98685.41
2023-05-24T20:24:19.512Z,98656.84
2023-05-24T20:26:46.132Z,98638.34
2023-05-24T20:29:12.600Z,98593.00
2023-05-24T20:31:39.232Z,98543.41
2023-05-24T20:34:05.813Z,98515.06
2023-05-24T20:36:33.202Z,98469.22
2023-05-24T20:38:59.678Z,98433.13
2023-05-24T20:41:26.634Z,98364.56
2023-05-24T20:43:53.695Z,98329.97
2023-05-24T20:46:20.328Z,98326.09
2023-05-24T20:48:46.865Z,98242.09
2023-05-24T20:51:13.393Z,98271.41
2023-05-24T20:53:40.324Z,98245.22
2023-05-24T20:56:06.981Z,98116.91
2023-05-24T20:58:33.552Z,98119.63
2023-05-24T21:01:00.274Z,98105.88
2023-05-24T21:03:26.946Z,98098.97
2023-05-24T21:05:53.644Z,98095.88
2023-05-24T21:08:20.107Z,98083.06
2023-05-24T21:10:46.808Z,98072.03
2023-05-24T21:13:13.350Z,98017.72
2023-05-24T21:15:39.891Z,97924.63
2023-05-24T21:18:06.471Z,98019.69
2023-05-24T21:20:33.064Z,98018.31
2023-05-24T21:23:00.494Z,97985.66
2023-05-24T21:25:27.085Z,97943.84
2023-05-24T21:27:53.535Z,97917.31
2023-05-24T21:30:19.987Z,98009.03
2023-05-24T21:32:46.750Z,98006.63
2023-05-24T21:35:13.372Z,98023.59
2023-05-24T21:37:39.933Z,97997.81
2023-05-24T21:40:06.777Z,98012.97
2023-05-24T21:42:33.383Z,97985.41
2023-05-24T21:44:59.986Z,97972.09
2023-05-24T21:47:26.482Z,98014.75
2023-05-24T21:49:54.879Z,98032.38
2023-05-24T21:52:21.858Z,98037.97
2023-05-24T21:54:48.388Z,98077.59
2023-05-24T21:57:14.899Z,98579.81
2023-05-24T21:59:41.450Z,98672.97
2023-05-24T22:02:07.988Z,98668.94
2023-05-24T22:04:34.656Z,98720.22
2023-05-24T22:07:01.152Z,98731.72
2023-05-24T22:09:27.661Z,98716.97
2023-05-24T22:11:54.098Z,98745.69
2023-05-24T22:14:21.225Z,98736.19
2023-05-24T22:16:47.773Z,98752.78
2023-05-24T22:19:16.589Z,98764.41
2023-05-24T22:21:45.830Z,98768.56
2023-05-24T22:24:12.841Z,98767.56
2023-05-24T22:26:41.758Z,98766.50
2023-05-24T22:29:08.348Z,98767.56
2023-05-24T22:31:36.228Z,98762.47
2023-05-24T22:34:03.294Z,98751.78
2023-05-24T22:36:38.879Z,98746.81
2023-05-24T22:39:05.894Z,98747.97
2023-05-24T22:41:32.413Z,98742.44
2023-05-24T22:44:02.067Z,98710.97
2023-05-24T22:46:28.666Z,98739.69
2023-05-24T22:48:58.101Z,98720.03
2023-05-24T22:51:24.936Z,98739.13
2023-05-24T22:53:52.727Z,98740.06
2023-05-24T22:56:19.520Z,98738.09
2023-05-24T22:58:46.562Z,98711.25
2023-05-24T23:01:13.235Z,98720.03
2023-05-24T23:03:39.835Z,98712.16
2023-05-24T23:06:07.685Z,98707.34
2023-05-24T23:08:34.590Z,98660.59
2023-05-24T23:11:01.700Z,98699.69
2023-05-24T23:13:33.064Z,98685.38
2023-05-24T23:16:00.035Z,98680.56
2023-05-24T23:18:27.904Z,98667.00
2023-05-24T23:20:54.698Z,98635.50
2023-05-24T23:23:21.742Z,98634.38
2023-05-24T23:25:51.057Z,98667.06
2023-05-24T23:28:17.606Z,98654.34
2023-05-24T23:30:44.310Z,98642.44
2023-05-24T23:33:11.384Z,98618.34
2023-05-24T23:35:39.697Z,98606.59
2023-05-24T23:38:06.348Z,98580.50
2023-05-24T23:40:34.076Z,98517.19
2023-05-24T23:43:00.676Z,98483.81
2023-05-24T23:45:27.116Z,98519.19
2023-05-24T23:47:53.756Z,98393.34
2023-05-24T23:50:22.551Z,98478.84
2023-05-24T23:52:49.846Z,98451.03
2023-05-24T23:55:16.693Z,98402.03
2023-05-24T23:57:43.389Z,98388.81
